Preview of NWS' New Version of Forecast
This preview is not operational and should not be used for support decisions.

Terminal Aerodrome Forecast (TAF)

Issued by National Weather Service (NWS)

                            
000
FTUS42 KKEY 232331
TAFEYW
TAF
KEYW 232331Z 2400/2424 05008KT P6SM SKC
     FM240400 08009KT P6SM SCT030
     FM241200 09011G17KT P6SM BKN030
     FM241600 10012G18KT P6SM SCT030 BKN100=